createdAt,value
2023-05-18T00:00:29.792Z,10.34
2023-05-18T00:01:26.532Z,10.32
2023-05-18T00:02:24.016Z,10.24
2023-05-18T00:03:20.774Z,10.13
2023-05-18T00:04:18.000Z,9.99
2023-05-18T00:05:14.544Z,9.95
2023-05-18T00:06:11.107Z,10.12
2023-05-18T00:07:07.726Z,10.13
2023-05-18T00:08:04.376Z,10.21
2023-05-18T00:09:01.171Z,10.57
2023-05-18T00:09:57.724Z,10.31
2023-05-18T00:10:54.394Z,10.13
2023-05-18T00:11:51.371Z,9.95
2023-05-18T00:12:48.073Z,9.86
2023-05-18T00:13:44.636Z,9.67
2023-05-18T00:14:41.172Z,9.68
2023-05-18T00:15:37.695Z,9.72
2023-05-18T00:16:34.287Z,9.77
2023-05-18T00:17:31.882Z,9.71
2023-05-18T00:18:28.689Z,9.60
2023-05-18T00:19:25.377Z,9.64
2023-05-18T00:20:22.297Z,9.72
2023-05-18T00:21:18.875Z,9.63
2023-05-18T00:22:18.677Z,9.57
2023-05-18T00:23:16.529Z,9.55
2023-05-18T00:24:13.610Z,9.78
2023-05-18T00:25:10.168Z,9.62
2023-05-18T00:26:06.890Z,9.62
2023-05-18T00:27:03.528Z,9.54
2023-05-18T00:28:00.069Z,9.54
2023-05-18T00:28:56.642Z,9.56
2023-05-18T00:29:53.148Z,9.55
2023-05-18T00:30:49.657Z,9.71
2023-05-18T00:31:46.384Z,9.92
2023-05-18T00:32:42.969Z,9.66
2023-05-18T00:33:40.671Z,9.65
2023-05-18T00:34:37.400Z,9.65
2023-05-18T00:35:34.018Z,9.68
2023-05-18T00:36:31.340Z,9.67
2023-05-18T00:37:27.901Z,9.61
2023-05-18T00:38:24.551Z,9.80
2023-05-18T00:39:21.244Z,9.87
2023-05-18T00:40:17.887Z,9.93
2023-05-18T00:41:14.423Z,9.86
2023-05-18T00:42:11.009Z,9.92
2023-05-18T00:43:07.645Z,9.81
2023-05-18T00:44:05.188Z,9.77
2023-05-18T00:45:01.887Z,9.70
2023-05-18T00:45:58.495Z,9.75
2023-05-18T00:46:55.112Z,9.84
2023-05-18T00:47:51.974Z,9.83
2023-05-18T00:48:49.219Z,9.82
2023-05-18T00:49:45.807Z,9.89
2023-05-18T00:50:42.344Z,9.98
2023-05-18T00:51:39.220Z,9.99
2023-05-18T00:52:36.346Z,10.06
2023-05-18T00:53:33.109Z,10.05
2023-05-18T00:54:29.852Z,10.06
2023-05-18T00:55:28.636Z,10.13
2023-05-18T00:56:26.336Z,10.15
2023-05-18T00:57:22.952Z,10.17
2023-05-18T00:58:19.702Z,10.12
2023-05-18T00:59:16.564Z,9.68
2023-05-18T01:00:14.158Z,10.15
2023-05-18T01:01:10.944Z,10.22
2023-05-18T01:02:09.822Z,10.18
2023-05-18T01:03:10.413Z,10.19
2023-05-18T01:04:07.830Z,10.22
2023-05-18T01:05:04.882Z,10.27
2023-05-18T01:06:01.467Z,10.30
2023-05-18T01:06:58.568Z,10.25
2023-05-18T01:07:56.696Z,10.25
2023-05-18T01:08:53.960Z,10.25
2023-05-18T01:09:50.513Z,10.28
2023-05-18T01:10:52.741Z,10.28
2023-05-18T01:12:12.125Z,10.19
2023-05-18T01:13:20.665Z,10.22
2023-05-18T01:14:17.331Z,10.14
2023-05-18T01:15:16.399Z,10.07
2023-05-18T01:16:17.141Z,10.09
2023-05-18T01:17:49.853Z,10.02
2023-05-18T01:18:54.901Z,10.10
2023-05-18T01:19:51.552Z,10.20
2023-05-18T01:21:13.601Z,10.31
2023-05-18T01:22:16.694Z,10.36
2023-05-18T01:23:22.332Z,10.33
2023-05-18T01:24:25.863Z,10.21
2023-05-18T01:25:25.288Z,10.18
2023-05-18T01:26:29.912Z,10.16
2023-05-18T01:27:27.188Z,10.13
2023-05-18T01:28:28.148Z,10.20
2023-05-18T01:29:26.010Z,10.21
2023-05-18T01:30:22.681Z,9.53
2023-05-18T01:31:19.444Z,10.13
2023-05-18T01:32:20.553Z,9.97
2023-05-18T01:33:17.108Z,9.88
2023-05-18T01:34:13.990Z,9.92
2023-05-18T01:35:10.652Z,9.94
2023-05-18T01:36:07.449Z,9.91
2023-05-18T01:37:04.036Z,9.90
2023-05-18T01:38:00.766Z,9.91
2023-05-18T01:39:01.549Z,9.82
2023-05-18T01:39:58.236Z,9.82
2023-05-18T01:41:33.506Z,9.83
2023-05-18T01:42:30.808Z,10.04
2023-05-18T01:43:33.363Z,10.04
2023-05-18T01:44:46.019Z,9.90
2023-05-18T01:45:46.428Z,9.82
2023-05-18T01:46:55.144Z,9.94
2023-05-18T01:47:56.866Z,10.02
2023-05-18T01:48:56.489Z,9.78
2023-05-18T01:50:09.494Z,9.63
2023-05-18T01:51:06.728Z,9.52
2023-05-18T01:52:11.310Z,9.50
2023-05-18T01:53:20.074Z,9.49
2023-05-18T01:54:18.122Z,9.48
2023-05-18T01:55:15.553Z,9.41
2023-05-18T01:56:13.948Z,9.49
2023-05-18T01:57:11.455Z,9.48
2023-05-18T01:58:09.177Z,9.51
2023-05-18T01:59:05.921Z,9.57
2023-05-18T02:00:05.893Z,9.52
2023-05-18T02:01:03.030Z,9.65
2023-05-18T02:02:00.728Z,9.63
2023-05-18T02:02:57.834Z,9.56
2023-05-18T02:03:54.590Z,9.48
2023-05-18T02:04:51.356Z,9.57
2023-05-18T02:05:47.853Z,9.56
2023-05-18T02:06:44.640Z,9.51
2023-05-18T02:07:44.105Z,9.58
2023-05-18T02:08:40.858Z,9.65
2023-05-18T02:09:37.501Z,9.62
2023-05-18T02:10:34.079Z,9.56
2023-05-18T02:11:31.104Z,9.62
2023-05-18T02:12:27.745Z,9.58
2023-05-18T02:13:24.218Z,9.64
2023-05-18T02:14:20.730Z,9.71
2023-05-18T02:15:17.360Z,9.69
2023-05-18T02:16:13.966Z,9.68
2023-05-18T02:17:11.691Z,9.67
2023-05-18T02:18:08.552Z,9.67
2023-05-18T02:19:05.276Z,9.64
2023-05-18T02:20:02.197Z,9.64
2023-05-18T02:21:01.657Z,9.65
2023-05-18T02:21:58.279Z,9.61
2023-05-18T02:22:54.870Z,9.62
2023-05-18T02:23:51.596Z,9.61
2023-05-18T02:24:48.258Z,9.64
2023-05-18T02:25:44.842Z,9.58
2023-05-18T02:26:41.763Z,9.66
2023-05-18T02:27:38.400Z,9.62
2023-05-18T02:28:34.917Z,9.52
2023-05-18T02:29:31.460Z,9.44
2023-05-18T02:30:29.333Z,9.63
2023-05-18T02:31:29.639Z,9.57
2023-05-18T02:32:26.290Z,9.56
2023-05-18T02:33:26.589Z,9.57
2023-05-18T02:34:24.863Z,9.48
2023-05-18T02:35:21.609Z,9.57
2023-05-18T02:36:18.675Z,9.49
2023-05-18T02:37:15.820Z,9.46
2023-05-18T02:38:12.559Z,9.61
2023-05-18T02:39:09.597Z,9.54
2023-05-18T02:40:12.941Z,9.50
2023-05-18T02:41:10.080Z,9.50
2023-05-18T02:42:06.857Z,9.49
2023-05-18T02:43:03.454Z,9.52
2023-05-18T02:44:00.040Z,9.51
2023-05-18T02:44:56.657Z,9.41
2023-05-18T02:45:53.208Z,9.44
2023-05-18T02:46:49.794Z,9.45
2023-05-18T02:47:46.736Z,9.46
2023-05-18T02:48:45.797Z,9.45
2023-05-18T02:49:42.446Z,9.52
2023-05-18T02:50:39.514Z,9.54
2023-05-18T02:51:36.224Z,9.59
2023-05-18T02:52:34.106Z,9.50
2023-05-18T02:53:30.825Z,9.47
2023-05-18T02:54:27.405Z,9.49
2023-05-18T02:55:24.038Z,9.49
2023-05-18T02:56:20.594Z,9.50
2023-05-18T02:57:17.250Z,9.50
2023-05-18T02:58:14.240Z,9.57
2023-05-18T02:59:11.609Z,9.53
2023-05-18T03:00:11.908Z,9.50
2023-05-18T03:01:08.552Z,9.66
2023-05-18T03:02:05.384Z,9.56
2023-05-18T03:03:03.037Z,9.52
2023-05-18T03:03:59.761Z,9.61
2023-05-18T03:04:57.619Z,9.55
2023-05-18T03:05:54.156Z,9.60
2023-05-18T03:06:52.996Z,9.66
2023-05-18T03:07:51.109Z,9.63
2023-05-18T03:08:49.120Z,9.61
2023-05-18T03:09:45.727Z,9.66
2023-05-18T03:10:42.377Z,9.68
2023-05-18T03:11:39.002Z,9.63
2023-05-18T03:12:35.631Z,9.71
2023-05-18T03:13:32.201Z,9.81
2023-05-18T03:14:28.712Z,9.76
2023-05-18T03:15:25.301Z,9.68
2023-05-18T03:16:21.904Z,9.75
2023-05-18T03:17:18.484Z,9.71
2023-05-18T03:18:15.032Z,9.77
2023-05-18T03:19:14.362Z,9.71
2023-05-18T03:20:11.548Z,10.08
2023-05-18T03:21:08.377Z,9.98
2023-05-18T03:22:06.046Z,10.09
2023-05-18T03:23:02.669Z,9.93
2023-05-18T03:24:03.195Z,9.79
2023-05-18T03:25:02.420Z,9.73
2023-05-18T03:25:58.974Z,9.76
2023-05-18T03:26:57.115Z,9.83
2023-05-18T03:27:53.765Z,9.82
2023-05-18T03:28:50.339Z,9.83
2023-05-18T03:29:46.949Z,9.76
2023-05-18T03:30:43.486Z,9.79
2023-05-18T03:31:40.764Z,9.81
2023-05-18T03:32:37.437Z,9.97
2023-05-18T03:33:33.987Z,10.28
2023-05-18T03:34:30.572Z,10.24
2023-05-18T03:35:27.578Z,10.43
2023-05-18T03:36:26.316Z,10.25
2023-05-18T03:37:22.865Z,10.03
2023-05-18T03:38:19.614Z,9.88
2023-05-18T03:39:16.276Z,9.86
2023-05-18T03:40:13.975Z,9.85
2023-05-18T03:41:10.816Z,9.80
2023-05-18T03:42:07.455Z,9.83
2023-05-18T03:43:04.029Z,9.90
2023-05-18T03:44:00.681Z,10.01
2023-05-18T03:44:57.336Z,10.04
2023-05-18T03:45:54.023Z,10.08
2023-05-18T03:46:50.668Z,10.08
2023-05-18T03:47:47.711Z,10.06
2023-05-18T03:48:44.261Z,10.34
2023-05-18T03:49:40.939Z,10.36
2023-05-18T03:50:37.545Z,10.36
2023-05-18T03:51:34.088Z,10.37
2023-05-18T03:52:30.841Z,10.47
2023-05-18T03:53:27.459Z,10.45
2023-05-18T03:54:24.729Z,10.54
2023-05-18T03:55:21.673Z,10.58
2023-05-18T03:56:18.301Z,10.22
2023-05-18T03:57:14.943Z,10.07
2023-05-18T03:58:11.459Z,10.03
2023-05-18T03:59:08.207Z,10.00
2023-05-18T04:00:08.779Z,10.01
2023-05-18T04:01:05.440Z,9.96
2023-05-18T04:02:02.063Z,9.95
2023-05-18T04:02:58.836Z,9.96
2023-05-18T04:03:56.640Z,9.99
2023-05-18T04:04:54.185Z,10.01
2023-05-18T04:05:52.001Z,10.22
2023-05-18T04:06:49.412Z,10.39
2023-05-18T04:07:46.774Z,10.30
2023-05-18T04:08:43.386Z,10.24
2023-05-18T04:09:39.955Z,10.24
2023-05-18T04:10:36.501Z,10.11
2023-05-18T04:11:33.190Z,10.07
2023-05-18T04:12:29.754Z,9.94
2023-05-18T04:13:26.398Z,9.88
2023-05-18T04:14:24.783Z,9.92
2023-05-18T04:15:21.351Z,9.91
2023-05-18T04:16:18.425Z,10.03
2023-05-18T04:17:22.237Z,10.06
2023-05-18T04:18:19.033Z,10.05
2023-05-18T04:19:15.979Z,10.05
2023-05-18T04:20:14.726Z,10.06
2023-05-18T04:21:11.941Z,10.06
2023-05-18T04:22:08.863Z,10.21
2023-05-18T04:23:05.391Z,10.17
2023-05-18T04:24:05.706Z,10.18
2023-05-18T04:25:03.301Z,10.26
2023-05-18T04:26:00.090Z,10.31
2023-05-18T04:26:59.525Z,10.25
2023-05-18T04:27:56.867Z,10.32
2023-05-18T04:29:00.191Z,10.36
2023-05-18T04:29:56.833Z,10.41
2023-05-18T04:30:53.477Z,10.21
2023-05-18T04:31:50.200Z,10.16
2023-05-18T04:32:47.226Z,10.19
2023-05-18T04:33:46.668Z,10.18
2023-05-18T04:34:43.227Z,10.14
2023-05-18T04:35:39.790Z,10.35
2023-05-18T04:36:39.847Z,10.34
2023-05-18T04:37:40.417Z,9.27
2023-05-18T04:38:37.084Z,10.43
2023-05-18T04:39:34.749Z,10.35
2023-05-18T04:40:33.963Z,10.31
2023-05-18T04:41:34.192Z,10.29
2023-05-18T04:42:31.047Z,10.25
2023-05-18T04:43:28.360Z,10.12
2023-05-18T04:44:25.997Z,10.16
2023-05-18T04:45:22.915Z,10.11
2023-05-18T04:46:19.855Z,10.25
2023-05-18T04:47:16.367Z,10.11
2023-05-18T04:48:14.645Z,10.09
2023-05-18T04:49:11.774Z,10.06
2023-05-18T04:50:08.545Z,10.10
2023-05-18T04:51:06.232Z,10.09
2023-05-18T04:52:02.799Z,10.00
2023-05-18T04:53:02.342Z,10.06
2023-05-18T04:53:58.874Z,10.04
2023-05-18T04:54:55.455Z,10.01
2023-05-18T04:55:53.363Z,9.98
2023-05-18T04:56:50.601Z,10.03
2023-05-18T04:57:47.724Z,10.02
2023-05-18T04:58:46.086Z,9.98
2023-05-18T04:59:46.401Z,10.01
2023-05-18T05:00:43.207Z,10.02
2023-05-18T05:01:39.812Z,10.06
2023-05-18T05:02:36.438Z,10.07
2023-05-18T05:03:33.277Z,10.11
2023-05-18T05:04:29.978Z,10.14
2023-05-18T05:05:27.223Z,10.13
2023-05-18T05:06:23.999Z,10.17
2023-05-18T05:07:22.620Z,10.21
2023-05-18T05:08:19.218Z,10.17
2023-05-18T05:09:15.746Z,10.17
2023-05-18T05:10:12.350Z,10.10
2023-05-18T05:11:08.875Z,10.09
2023-05-18T05:12:05.638Z,10.07
2023-05-18T05:13:02.188Z,10.07
2023-05-18T05:13:58.843Z,10.02
2023-05-18T05:14:55.458Z,10.11
2023-05-18T05:15:52.096Z,10.07
2023-05-18T05:16:48.655Z,10.10
2023-05-18T05:17:46.835Z,10.22
2023-05-18T05:18:45.207Z,10.17
2023-05-18T05:19:43.137Z,10.26
2023-05-18T05:20:39.664Z,10.23
2023-05-18T05:21:36.456Z,10.23
2023-05-18T05:22:33.133Z,10.26
2023-05-18T05:23:29.696Z,10.38
2023-05-18T05:24:26.319Z,10.32
2023-05-18T05:25:22.876Z,10.28
2023-05-18T05:26:19.837Z,10.28
2023-05-18T05:27:16.421Z,10.23
2023-05-18T05:28:13.145Z,10.23
2023-05-18T05:29:09.679Z,10.33
2023-05-18T05:30:06.823Z,9.78
2023-05-18T05:31:03.535Z,10.46
2023-05-18T05:32:00.132Z,10.59
2023-05-18T05:32:56.812Z,10.56
2023-05-18T05:33:53.369Z,10.46
2023-05-18T05:34:51.837Z,10.43
2023-05-18T05:35:48.440Z,10.49
2023-05-18T05:36:45.060Z,10.66
2023-05-18T05:37:41.938Z,10.65
2023-05-18T05:38:38.551Z,10.54
2023-05-18T05:39:35.071Z,10.53
2023-05-18T05:40:31.760Z,10.58
2023-05-18T05:41:28.359Z,10.70
2023-05-18T05:42:25.681Z,10.81
2023-05-18T05:43:22.252Z,10.60
2023-05-18T05:44:19.334Z,10.58
2023-05-18T05:45:16.106Z,10.54
2023-05-18T05:46:12.620Z,10.54
2023-05-18T05:47:09.938Z,10.57
2023-05-18T05:48:06.685Z,10.58
2023-05-18T05:49:04.136Z,10.69
2023-05-18T05:50:00.773Z,10.56
2023-05-18T05:50:57.333Z,10.63
2023-05-18T05:51:53.882Z,10.69
2023-05-18T05:52:50.580Z,10.82
2023-05-18T05:53:47.690Z,10.86
2023-05-18T05:54:44.499Z,10.80
2023-05-18T05:55:43.793Z,10.86
2023-05-18T05:56:40.490Z,10.88
2023-05-18T05:57:37.107Z,11.18
2023-05-18T05:58:33.648Z,11.45
2023-05-18T05:59:30.193Z,11.59
2023-05-18T06:00:28.886Z,11.30
2023-05-18T06:01:25.818Z,11.61
2023-05-18T06:02:22.433Z,11.78
2023-05-18T06:03:19.229Z,12.05
2023-05-18T06:04:16.106Z,11.72
2023-05-18T06:05:12.829Z,11.77
2023-05-18T06:06:09.381Z,11.57
2023-05-18T06:07:06.387Z,11.38
2023-05-18T06:08:02.937Z,11.73
2023-05-18T06:08:59.458Z,11.47
2023-05-18T06:09:56.034Z,11.22
2023-05-18T06:10:52.729Z,11.41
2023-05-18T06:11:49.282Z,11.47
2023-05-18T06:12:45.825Z,11.48
2023-05-18T06:13:42.336Z,11.43
2023-05-18T06:14:38.903Z,11.46
2023-05-18T06:15:35.561Z,11.49
2023-05-18T06:16:32.202Z,11.34
2023-05-18T06:17:28.928Z,11.30
2023-05-18T06:18:25.585Z,11.34
2023-05-18T06:19:22.212Z,11.38
2023-05-18T06:20:18.797Z,11.52
2023-05-18T06:21:16.136Z,11.64
2023-05-18T06:22:12.690Z,11.70
2023-05-18T06:23:09.237Z,12.03
2023-05-18T06:24:06.176Z,12.07
2023-05-18T06:25:02.790Z,11.69
2023-05-18T06:25:59.441Z,11.53
2023-05-18T06:26:56.053Z,11.83
2023-05-18T06:27:52.616Z,12.20
2023-05-18T06:28:49.498Z,12.44
2023-05-18T06:29:46.163Z,12.50
2023-05-18T06:30:42.822Z,12.73
2023-05-18T06:31:39.461Z,12.63
2023-05-18T06:32:37.500Z,11.90
2023-05-18T06:33:34.592Z,12.13
2023-05-18T06:34:31.210Z,12.07
2023-05-18T06:35:27.905Z,11.96
2023-05-18T06:36:24.639Z,12.42
2023-05-18T06:37:21.500Z,12.68
2023-05-18T06:38:18.261Z,12.82
2023-05-18T06:39:14.910Z,12.54
2023-05-18T06:40:11.965Z,12.88
2023-05-18T06:41:08.728Z,12.44
2023-05-18T06:42:05.364Z,12.48
2023-05-18T06:43:01.913Z,12.40
2023-05-18T06:44:00.490Z,12.67
2023-05-18T06:44:57.076Z,13.08
2023-05-18T06:45:54.879Z,13.31
2023-05-18T06:46:51.485Z,13.50
2023-05-18T06:47:48.732Z,13.48
2023-05-18T06:48:45.903Z,13.47
2023-05-18T06:49:42.622Z,13.47
2023-05-18T06:50:39.187Z,12.47
2023-05-18T06:51:35.701Z,12.36
2023-05-18T06:52:32.676Z,12.43
2023-05-18T06:53:31.792Z,12.33
2023-05-18T06:54:29.956Z,12.00
2023-05-18T06:55:27.208Z,11.85
2023-05-18T06:56:23.825Z,11.90
2023-05-18T06:57:20.739Z,12.11
2023-05-18T06:58:17.243Z,12.02
2023-05-18T06:59:14.846Z,11.75
2023-05-18T07:00:13.008Z,11.62
2023-05-18T07:01:09.818Z,11.60
2023-05-18T07:02:06.858Z,11.47
2023-05-18T07:03:03.791Z,11.55
2023-05-18T07:04:00.459Z,11.73
2023-05-18T07:04:57.076Z,11.73
2023-05-18T07:05:53.644Z,11.73
2023-05-18T07:06:50.255Z,12.06
2023-05-18T07:07:47.645Z,11.95
2023-05-18T07:08:44.721Z,11.87
2023-05-18T07:09:45.698Z,11.84
2023-05-18T07:10:42.319Z,11.76
2023-05-18T07:11:40.486Z,11.67
2023-05-18T07:12:37.082Z,11.69
2023-05-18T07:13:33.707Z,11.71
2023-05-18T07:14:30.275Z,11.66
2023-05-18T07:15:27.075Z,11.83
2023-05-18T07:16:23.646Z,12.20
2023-05-18T07:17:20.262Z,11.87
2023-05-18T07:18:16.846Z,12.00
2023-05-18T07:19:14.094Z,12.05
2023-05-18T07:20:10.803Z,11.85
2023-05-18T07:21:07.401Z,12.06
2023-05-18T07:22:04.780Z,12.02
2023-05-18T07:23:01.473Z,11.78
2023-05-18T07:23:58.155Z,11.65
2023-05-18T07:24:54.810Z,11.71
2023-05-18T07:25:51.744Z,11.66
2023-05-18T07:26:48.367Z,11.76
2023-05-18T07:27:44.878Z,11.90
2023-05-18T07:28:41.471Z,11.91
2023-05-18T07:29:38.051Z,11.87
2023-05-18T07:30:34.667Z,12.01
2023-05-18T07:31:32.698Z,11.93
2023-05-18T07:32:29.389Z,11.96
2023-05-18T07:33:26.400Z,11.98
2023-05-18T07:34:23.612Z,11.48
2023-05-18T07:35:21.681Z,12.08
2023-05-18T07:36:18.332Z,11.98
2023-05-18T07:37:14.937Z,11.90
2023-05-18T07:38:11.516Z,12.12
2023-05-18T07:39:08.907Z,12.32
2023-05-18T07:40:05.966Z,12.55
2023-05-18T07:41:02.545Z,11.98
2023-05-18T07:41:59.304Z,12.30
2023-05-18T07:42:56.197Z,12.12
2023-05-18T07:43:52.812Z,12.29
2023-05-18T07:44:49.332Z,12.27
2023-05-18T07:45:45.896Z,12.53
2023-05-18T07:46:43.411Z,12.71
2023-05-18T07:47:40.307Z,12.82
2023-05-18T07:48:38.480Z,12.32
2023-05-18T07:49:39.093Z,12.61
2023-05-18T07:50:35.818Z,12.84
2023-05-18T07:51:32.658Z,12.95
2023-05-18T07:52:29.209Z,13.38
2023-05-18T07:53:25.924Z,12.65
2023-05-18T07:54:22.461Z,12.67
2023-05-18T07:55:18.975Z,12.52
2023-05-18T07:56:15.497Z,12.58
2023-05-18T07:57:12.110Z,13.11
2023-05-18T07:58:09.607Z,12.96
2023-05-18T07:59:06.551Z,13.43
2023-05-18T08:00:05.043Z,13.63
2023-05-18T08:01:01.894Z,14.33
2023-05-18T08:02:00.068Z,13.72
2023-05-18T08:02:56.895Z,13.31
2023-05-18T08:03:54.580Z,13.45
2023-05-18T08:04:52.060Z,12.97
2023-05-18T08:05:48.576Z,13.20
2023-05-18T08:06:45.062Z,12.98
2023-05-18T08:07:42.637Z,13.23
2023-05-18T08:08:39.259Z,13.07
2023-05-18T08:09:35.874Z,12.89
2023-05-18T08:10:32.502Z,13.12
2023-05-18T08:11:29.045Z,12.69
2023-05-18T08:12:25.586Z,12.72
2023-05-18T08:13:22.218Z,12.88
2023-05-18T08:14:18.874Z,12.83
2023-05-18T08:15:15.636Z,12.89
2023-05-18T08:16:12.609Z,13.05
2023-05-18T08:17:09.412Z,12.75
2023-05-18T08:18:06.302Z,12.70
2023-05-18T08:19:03.562Z,12.90
2023-05-18T08:20:00.198Z,12.99
2023-05-18T08:20:56.810Z,13.11
2023-05-18T08:21:53.395Z,13.19
2023-05-18T08:22:49.989Z,13.42
2023-05-18T08:23:46.720Z,13.17
2023-05-18T08:24:43.401Z,13.27
2023-05-18T08:25:39.887Z,12.93
2023-05-18T08:26:36.445Z,12.67
2023-05-18T08:27:32.951Z,12.79
2023-05-18T08:28:29.881Z,12.85
2023-05-18T08:29:26.477Z,12.88
2023-05-18T08:30:23.145Z,12.56
2023-05-18T08:31:19.727Z,12.36
2023-05-18T08:32:16.523Z,12.04
2023-05-18T08:33:13.257Z,12.28
2023-05-18T08:34:09.952Z,11.98
2023-05-18T08:35:08.483Z,12.10
2023-05-18T08:36:05.287Z,12.04
2023-05-18T08:37:01.891Z,12.51
2023-05-18T08:37:58.527Z,12.18
2023-05-18T08:38:55.231Z,12.16
2023-05-18T08:39:52.496Z,12.33
2023-05-18T08:40:58.032Z,12.27
2023-05-18T08:42:07.960Z,12.29
2023-05-18T08:43:08.591Z,12.03
2023-05-18T08:44:11.965Z,12.21
2023-05-18T08:45:13.325Z,12.43
2023-05-18T08:46:25.824Z,11.93
2023-05-18T08:47:26.141Z,12.02
2023-05-18T08:48:26.442Z,12.31
2023-05-18T08:49:26.994Z,12.38
2023-05-18T08:50:24.724Z,12.25
2023-05-18T08:51:21.843Z,12.44
2023-05-18T08:52:19.496Z,12.18
2023-05-18T08:53:16.857Z,12.20
2023-05-18T08:54:19.679Z,11.94
2023-05-18T08:55:17.930Z,11.79
2023-05-18T08:56:14.854Z,11.87
2023-05-18T08:57:11.391Z,11.82
2023-05-18T08:58:09.340Z,11.84
2023-05-18T08:59:08.425Z,12.02
2023-05-18T09:00:08.007Z,12.01
2023-05-18T09:01:04.770Z,12.23
2023-05-18T09:02:01.454Z,12.38
2023-05-18T09:02:58.187Z,12.75
2023-05-18T09:03:55.837Z,12.35
2023-05-18T09:04:54.129Z,12.40
2023-05-18T09:05:52.164Z,12.27
2023-05-18T09:06:48.881Z,12.02
2023-05-18T09:07:46.231Z,11.98
2023-05-18T09:08:43.389Z,11.94
2023-05-18T09:09:40.874Z,11.78
2023-05-18T09:10:38.466Z,11.73
2023-05-18T09:11:35.910Z,11.83
2023-05-18T09:12:33.248Z,11.72
2023-05-18T09:13:29.797Z,11.90
2023-05-18T09:14:26.919Z,12.08
2023-05-18T09:15:25.407Z,11.64
2023-05-18T09:16:22.171Z,11.68
2023-05-18T09:17:19.021Z,11.71
2023-05-18T09:18:15.728Z,11.75
2023-05-18T09:19:12.498Z,11.82
2023-05-18T09:20:09.372Z,11.64
2023-05-18T09:21:06.293Z,11.70
2023-05-18T09:22:03.318Z,11.56
2023-05-18T09:23:00.220Z,11.59
2023-05-18T09:23:56.824Z,11.61
2023-05-18T09:24:53.451Z,11.69
2023-05-18T09:25:50.206Z,11.70
2023-05-18T09:26:46.941Z,11.84
2023-05-18T09:27:43.906Z,11.76
2023-05-18T09:28:41.910Z,11.84
2023-05-18T09:29:51.277Z,11.91
2023-05-18T09:30:48.236Z,11.91
2023-05-18T09:31:45.918Z,12.00
2023-05-18T09:32:42.631Z,11.90
2023-05-18T09:33:40.113Z,11.65
2023-05-18T09:34:41.025Z,11.79
2023-05-18T09:35:37.731Z,12.10
2023-05-18T09:36:34.718Z,11.80
2023-05-18T09:37:31.445Z,12.19
2023-05-18T09:38:28.163Z,12.35
2023-05-18T09:39:24.728Z,12.38
2023-05-18T09:40:27.918Z,12.25
2023-05-18T09:41:26.205Z,12.25
2023-05-18T09:42:24.240Z,12.05
2023-05-18T09:43:21.029Z,12.07
2023-05-18T09:44:17.902Z,11.96
2023-05-18T09:45:19.462Z,12.02
2023-05-18T09:46:16.186Z,11.87
2023-05-18T09:47:12.752Z,11.81
2023-05-18T09:48:09.686Z,11.75
2023-05-18T09:49:07.067Z,11.84
2023-05-18T09:50:03.668Z,12.22
2023-05-18T09:51:00.214Z,11.93
2023-05-18T09:52:02.486Z,11.63
2023-05-18T09:53:00.173Z,11.84
2023-05-18T09:53:57.668Z,12.14
2023-05-18T09:55:01.021Z,11.98
2023-05-18T09:56:02.044Z,11.87
2023-05-18T09:57:10.282Z,11.96
2023-05-18T09:58:08.243Z,11.91
2023-05-18T09:59:08.500Z,11.85
2023-05-18T10:00:10.436Z,11.96
2023-05-18T10:01:07.206Z,12.01
2023-05-18T10:02:12.194Z,11.76
2023-05-18T10:03:38.284Z,11.88
2023-05-18T10:04:35.402Z,11.91
2023-05-18T10:05:36.031Z,12.04
2023-05-18T10:06:33.091Z,12.05
2023-05-18T10:07:29.750Z,12.08
2023-05-18T10:08:26.343Z,12.34
2023-05-18T10:09:22.863Z,11.99
2023-05-18T10:10:20.790Z,12.13
2023-05-18T10:11:19.642Z,11.92
2023-05-18T10:12:17.893Z,11.79
2023-05-18T10:13:17.895Z,11.81
2023-05-18T10:14:14.402Z,12.00
2023-05-18T10:15:14.421Z,11.99
2023-05-18T10:16:11.019Z,11.93
2023-05-18T10:18:10.808Z,12.01
2023-05-18T10:19:09.038Z,11.30
2023-05-18T10:20:09.213Z,11.94
2023-05-18T10:21:07.296Z,11.94
2023-05-18T10:22:06.139Z,11.79
2023-05-18T10:23:05.313Z,11.77
2023-05-18T10:24:03.770Z,11.74
2023-05-18T10:25:01.423Z,11.87
2023-05-18T10:25:58.471Z,11.61
2023-05-18T10:26:57.672Z,11.52
2023-05-18T10:28:00.420Z,11.69
2023-05-18T10:28:59.085Z,11.78
2023-05-18T10:29:59.303Z,11.57
2023-05-18T10:30:57.164Z,11.80
2023-05-18T10:31:55.791Z,11.60
2023-05-18T10:32:52.652Z,11.61
2023-05-18T10:33:50.452Z,11.57
2023-05-18T10:34:47.732Z,11.49
2023-05-18T10:35:45.489Z,11.44
2023-05-18T10:36:42.889Z,11.42
2023-05-18T10:37:41.232Z,11.41
2023-05-18T10:38:42.504Z,11.62
2023-05-18T10:39:40.434Z,11.64
2023-05-18T10:40:37.290Z,11.52
2023-05-18T10:41:34.458Z,11.64
2023-05-18T10:42:31.637Z,11.68
2023-05-18T10:43:28.633Z,11.50
2023-05-18T10:44:25.455Z,11.57
2023-05-18T10:45:22.745Z,11.56
2023-05-18T10:46:21.532Z,11.49
2023-05-18T10:47:19.488Z,11.49
2023-05-18T10:48:16.803Z,11.63
2023-05-18T10:49:17.487Z,11.59
2023-05-18T10:50:14.840Z,11.70
2023-05-18T10:51:12.916Z,11.75
2023-05-18T10:52:10.867Z,11.75
2023-05-18T10:53:10.116Z,11.82
2023-05-18T10:54:12.864Z,11.93
2023-05-18T10:55:09.486Z,11.80
2023-05-18T10:56:07.864Z,11.89
2023-05-18T10:57:04.701Z,12.02
2023-05-18T10:58:07.491Z,11.92
2023-05-18T10:59:05.246Z,11.89
2023-05-18T11:00:05.515Z,11.79
2023-05-18T11:01:03.281Z,12.05
2023-05-18T11:02:01.431Z,12.08
2023-05-18T11:02:58.430Z,12.13
2023-05-18T11:03:55.082Z,12.00
2023-05-18T11:04:54.285Z,11.90
2023-05-18T11:05:52.368Z,12.08
2023-05-18T11:06:57.472Z,11.97
2023-05-18T11:08:05.105Z,12.01
2023-05-18T11:09:02.067Z,12.25
2023-05-18T11:10:01.009Z,12.13
2023-05-18T11:11:02.834Z,12.15
2023-05-18T11:12:00.315Z,12.23
2023-05-18T11:12:59.381Z,12.07
2023-05-18T11:14:00.596Z,12.05
2023-05-18T11:14:58.121Z,12.35
2023-05-18T11:15:55.106Z,12.33
2023-05-18T11:16:52.233Z,12.26
2023-05-18T11:18:08.731Z,12.26
2023-05-18T11:19:07.003Z,12.65
2023-05-18T11:20:06.574Z,12.70
2023-05-18T11:21:03.393Z,12.21
2023-05-18T11:22:11.444Z,12.33
2023-05-18T11:23:07.945Z,12.57
2023-05-18T11:24:21.459Z,12.78
2023-05-18T11:25:27.078Z,12.30
2023-05-18T11:26:28.383Z,12.68
2023-05-18T11:27:24.946Z,12.83
2023-05-18T11:28:22.533Z,12.78
2023-05-18T11:29:23.344Z,12.78
2023-05-18T11:30:36.571Z,12.87
2023-05-18T11:31:43.426Z,12.78
2023-05-18T11:32:40.027Z,12.81
2023-05-18T11:33:43.028Z,12.94
2023-05-18T11:34:44.793Z,12.75
2023-05-18T11:36:01.088Z,12.73
2023-05-18T11:36:57.751Z,12.75
2023-05-18T11:37:54.285Z,12.87
2023-05-18T11:38:52.894Z,12.85
2023-05-18T11:40:00.119Z,12.77
2023-05-18T11:41:00.823Z,12.81
2023-05-18T11:42:01.327Z,12.86
2023-05-18T11:42:58.506Z,12.07
2023-05-18T11:44:14.982Z,12.68
2023-05-18T11:45:12.902Z,12.67
2023-05-18T11:46:17.617Z,12.56
2023-05-18T11:47:14.242Z,12.44
2023-05-18T11:48:12.284Z,12.51
2023-05-18T11:49:09.807Z,12.20
2023-05-18T11:50:08.133Z,12.31
2023-05-18T11:51:09.402Z,12.31
2023-05-18T11:52:06.513Z,12.28
2023-05-18T11:53:03.126Z,12.26
2023-05-18T11:54:00.109Z,12.23
2023-05-18T11:54:57.625Z,12.11
2023-05-18T11:55:56.953Z,12.20
2023-05-18T11:56:53.888Z,12.47
2023-05-18T11:57:52.798Z,12.48
2023-05-18T11:59:09.490Z,12.19
2023-05-18T12:00:11.798Z,12.15
2023-05-18T12:01:11.969Z,12.06
2023-05-18T12:02:11.727Z,12.00
2023-05-18T12:03:09.116Z,11.86
2023-05-18T12:04:06.362Z,11.94
2023-05-18T12:05:07.088Z,11.83
2023-05-18T12:06:05.140Z,11.86
2023-05-18T12:07:05.180Z,12.05
2023-05-18T12:08:01.867Z,12.28
2023-05-18T12:08:59.552Z,12.48
2023-05-18T12:10:03.010Z,12.19
2023-05-18T12:11:00.162Z,12.10
2023-05-18T12:11:56.759Z,12.07
2023-05-18T12:12:53.579Z,11.99
2023-05-18T12:13:51.978Z,11.98
2023-05-18T12:15:08.789Z,12.04
2023-05-18T12:16:06.565Z,12.27
2023-05-18T12:17:03.473Z,12.29
2023-05-18T12:18:00.323Z,12.29
2023-05-18T12:18:57.310Z,12.21
2023-05-18T12:19:53.888Z,12.11
2023-05-18T12:20:51.367Z,11.90
2023-05-18T12:21:47.924Z,11.76
2023-05-18T12:22:52.706Z,11.84
2023-05-18T12:23:49.318Z,11.96
2023-05-18T12:24:46.067Z,11.57
2023-05-18T12:25:42.786Z,11.46
2023-05-18T12:26:41.239Z,11.82
2023-05-18T12:27:41.602Z,11.56
2023-05-18T12:28:38.783Z,11.33
2023-05-18T12:29:38.331Z,11.54
2023-05-18T12:30:36.076Z,11.14
2023-05-18T12:31:33.067Z,11.03
2023-05-18T12:32:30.408Z,10.72
2023-05-18T12:33:27.409Z,10.77
2023-05-18T12:34:28.219Z,10.84
2023-05-18T12:35:25.137Z,10.82